Time;durP1;ratioP1;P1;durP2;ratioP2;P2;SDS_P1;SDS_P2;PMS_P1;PMS_P2;Temp;Humidity;BMP_temperature;BMP_pressure;BME280_temperature;BME280_humidity;BME280_pressure;Samples;Min_cycle;Max_cycle;Signal;HPM_P1;HPM_P2
2021/08/03 00:00:24;;;;;;;25.15;7.60;;;;;;;14.71;66.72;99765.31;10341179;28;20947;-60
2021/08/03 00:05:29;;;;;;;22.60;6.53;;;;;;;14.64;67.27;99758.84;10350046;28;20060;-61
2021/08/03 00:10:31;;;;;;;24.17;6.25;;;;;;;14.60;67.17;99758.25;10339033;28;20061;-61
2021/08/03 00:15:33;;;;;;;7.43;6.03;;;;;;;14.57;67.14;99759.34;10336379;28;20129;-61
2021/08/03 00:20:36;;;;;;;10.38;6.68;;;;;;;14.59;67.00;99752.16;10332600;28;20707;-61
2021/08/03 00:25:38;;;;;;;13.57;7.63;;;;;;;14.59;66.40;99741.63;10358011;28;20038;-61
2021/08/03 00:30:42;;;;;;;89.70;9.73;;;;;;;14.43;66.66;99746.41;10335967;28;20137;-61
2021/08/03 00:35:48;;;;;;;20.63;7.03;;;;;;;14.34;67.38;99744.50;10340930;28;20056;-61
2021/08/03 00:41:00;;;;;;;109.18;8.10;;;;;;;14.40;67.29;99735.28;10344092;28;20050;-60
2021/08/03 00:46:01;;;;;;;19.23;6.90;;;;;;;14.50;66.79;99737.09;10344846;28;20624;-60
2021/08/03 00:51:03;;;;;;;52.50;8.52;;;;;;;14.55;66.72;99734.13;10355617;28;20137;-60
2021/08/03 00:56:05;;;;;;;124.45;8.77;;;;;;;14.39;66.92;99731.81;10352545;28;20052;-61
2021/08/03 01:01:07;;;;;;;21.38;6.95;;;;;;;14.53;66.68;99728.16;10351999;28;20060;-61
2021/08/03 01:06:26;;;;;;;224.95;8.48;;;;;;;14.45;66.46;99723.44;10336662;28;20152;-61
2021/08/03 01:11:43;;;;;;;181.05;12.05;;;;;;;14.48;66.76;99727.63;10358260;28;20096;-61
2021/08/03 01:16:53;;;;;;;24.08;6.30;;;;;;;14.53;66.67;99726.31;10379167;28;20473;-60
2021/08/03 01:22:15;;;;;;;53.13;7.32;;;;;;;14.65;66.80;99715.78;10351083;28;20052;-61
2021/08/03 01:27:28;;;;;;;33.83;6.75;;;;;;;14.77;66.37;99738.50;10327511;28;20499;-61
2021/08/03 01:32:33;;;;;;;101.72;9.80;;;;;;;14.53;66.45;99731.59;10343626;28;20526;-60
2021/08/03 01:37:35;;;;;;;16.63;6.75;;;;;;;14.40;66.68;99727.38;10348929;28;20133;-60
2021/08/03 01:42:40;;;;;;;28.13;6.68;;;;;;;14.40;66.80;99727.38;10333441;28;20140;-60
2021/08/03 01:47:42;;;;;;;30.63;6.47;;;;;;;14.45;66.68;99731.31;10364206;28;20406;-61
2021/08/03 01:52:46;;;;;;;25.20;7.10;;;;;;;14.50;66.60;99723.94;10348687;28;20054;-61
2021/08/03 01:57:47;;;;;;;228.27;10.90;;;;;;;14.45;66.38;99720.78;10335346;28;20479;-61
2021/08/03 02:02:49;;;;;;;9.07;5.10;;;;;;;14.42;66.69;99728.94;10355992;28;20056;-61
2021/08/03 02:07:51;;;;;;;75.60;9.75;;;;;;;14.45;66.66;99728.69;10370344;28;20153;-61
2021/08/03 02:12:54;;;;;;;7.65;5.05;;;;;;;14.51;66.63;99728.25;10343672;28;20065;-61
2021/08/03 02:17:56;;;;;;;9.15;5.20;;;;;;;14.53;66.80;99726.31;10354308;28;20131;-61
2021/08/03 02:22:57;;;;;;;8.50;5.78;;;;;;;14.64;66.05;99719.38;10367824;28;20084;-61
2021/08/03 02:27:59;;;;;;;9.82;6.13;;;;;;;14.55;66.07;99716.50;10333411;28;20133;-61
2021/08/03 02:33:06;;;;;;;9.77;7.80;;;;;;;14.50;66.13;99710.78;10334989;28;20459;-61
2021/08/03 02:38:12;;;;;;;9.65;7.63;;;;;;;14.33;66.48;99707.81;10338849;28;20073;-61
2021/08/03 02:43:15;;;;;;;189.50;11.98;;;;;;;14.28;66.38;99704.69;10335663;28;20056;-61
2021/08/03 02:48:20;;;;;;;28.55;7.93;;;;;;;14.08;66.59;99702.78;10352362;28;20480;-61
2021/08/03 02:53:45;;;;;;;9.07;6.32;;;;;;;14.10;67.25;99695.59;10341195;28;20125;-61
2021/08/03 02:59:07;;;;;;;23.55;9.65;;;;;;;14.36;66.50;99702.28;10368759;28;20440;-61
2021/08/03 03:04:32;;;;;;;39.92;10.02;;;;;;;14.44;66.78;99697.25;10356572;28;20103;-61
2021/08/03 03:09:36;;;;;;;310.88;15.32;;;;;;;14.46;66.19;99692.69;10334713;28;20137;-61
2021/08/03 03:14:42;;;;;;;15.32;7.72;;;;;;;14.37;66.69;99683.72;10331626;28;20137;-61
2021/08/03 03:19:44;;;;;;;39.03;9.80;;;;;;;14.35;66.32;99683.03;10343480;28;20042;-61
2021/08/03 03:24:47;;;;;;;14.50;8.05;;;;;;;14.30;66.83;99681.72;10351328;28;20133;-61
2021/08/03 03:29:51;;;;;;;12.05;6.72;;;;;;;14.29;66.57;99674.78;10324842;28;20061;-61
2021/08/03 03:34:54;;;;;;;13.68;7.90;;;;;;;14.21;66.58;99683.28;10341018;28;20483;-61
2021/08/03 03:39:59;;;;;;;11.05;6.90;;;;;;;14.19;66.79;99681.72;10326904;28;20169;-61
2021/08/03 03:45:01;;;;;;;13.50;8.02;;;;;;;14.18;66.70;99685.31;10324837;28;20478;-61
2021/08/03 03:50:12;;;;;;;16.30;8.57;;;;;;;14.19;67.08;99682.56;10350639;28;20550;-61
2021/08/03 03:55:20;;;;;;;14.00;8.88;;;;;;;14.33;66.79;99682.31;10337903;28;20137;-60
2021/08/03 04:00:22;;;;;;;18.60;10.05;;;;;;;14.42;66.65;99691.28;10362607;28;20538;-61
2021/08/03 04:05:25;;;;;;;21.13;12.50;;;;;;;14.47;66.53;99681.22;10352198;28;20240;-61
2021/08/03 04:10:32;;;;;;;20.33;10.55;;;;;;;14.42;66.45;99684.22;10343814;28;20056;-61
2021/08/03 04:15:34;;;;;;;23.42;12.02;;;;;;;14.37;66.64;99685.56;10345388;28;20142;-61
2021/08/03 04:20:36;;;;;;;17.52;10.68;;;;;;;14.38;66.49;99680.16;10352313;28;20065;-61
2021/08/03 04:25:40;;;;;;;25.00;10.63;;;;;;;14.39;66.94;99681.81;10368007;28;20142;-61
2021/08/03 04:30:42;;;;;;;20.25;11.18;;;;;;;14.46;66.57;99682.19;10368901;28;20137;-60
2021/08/03 04:35:44;;;;;;;14.88;8.93;;;;;;;14.45;66.43;99677.88;10369166;28;20049;-61
2021/08/03 04:40:45;;;;;;;12.32;8.50;;;;;;;14.38;66.64;99674.91;10369130;28;20549;-61
2021/08/03 04:45:47;;;;;;;16.00;9.60;;;;;;;14.40;66.56;99678.25;10368679;28;20046;-60
2021/08/03 04:50:49;;;;;;;17.55;8.90;;;;;;;14.37;66.69;99675.84;10368067;28;20053;-61
2021/08/03 04:55:51;;;;;;;17.25;8.77;;;;;;;14.43;66.84;99675.34;10367998;28;20042;-61
2021/08/03 05:00:52;;;;;;;15.48;8.27;;;;;;;14.57;66.54;99675.13;10367597;28;20116;-61
2021/08/03 05:05:54;;;;;;;19.23;9.77;;;;;;;14.54;66.39;99664.84;10350964;28;20096;-61
2021/08/03 05:10:56;;;;;;;10.30;6.75;;;;;;;14.48;66.56;99661.84;10368471;28;20046;-63
2021/08/03 05:15:58;;;;;;;12.43;7.70;;;;;;;14.54;66.81;99664.84;10368192;28;20041;-61
2021/08/03 05:21:00;;;;;;;12.60;9.02;;;;;;;14.84;66.30;99663.34;10366333;28;20133;-60
2021/08/03 05:26:02;;;;;;;10.45;7.45;;;;;;;14.87;66.40;99649.91;10359946;28;20045;-61
2021/08/03 05:31:03;;;;;;;12.23;9.30;;;;;;;14.88;65.97;99654.25;10345142;28;20116;-61
2021/08/03 05:36:06;;;;;;;13.82;8.10;;;;;;;15.04;65.67;99650.19;10365348;28;20081;-60
2021/08/03 05:41:08;;;;;;;16.17;10.63;;;;;;;15.15;65.30;99651.94;10366775;28;20137;-61
2021/08/03 05:46:09;;;;;;;19.08;10.32;;;;;;;15.04;65.22;99650.19;10366414;28;20129;-61
2021/08/03 05:51:11;;;;;;;20.00;12.13;;;;;;;15.34;65.15;99645.03;10366817;28;20517;-60
2021/08/03 05:56:13;;;;;;;21.17;12.73;;;;;;;15.42;64.48;99633.84;10365887;28;20050;-61
2021/08/03 06:01:14;;;;;;;24.65;13.68;;;;;;;15.40;64.55;99639.25;10366099;28;20056;-61
2021/08/03 06:06:20;;;;;;;19.15;12.93;;;;;;;15.47;64.63;99641.38;10365431;28;20049;-60
2021/08/03 06:11:26;;;;;;;22.48;12.73;;;;;;;15.62;64.26;99638.28;10365751;28;20053;-61
2021/08/03 06:16:30;;;;;;;21.60;14.45;;;;;;;15.74;63.74;99637.25;10357063;28;20278;-60
2021/08/03 06:21:32;;;;;;;22.17;13.45;;;;;;;15.88;63.35;99630.78;10333994;28;20049;-61
2021/08/03 06:26:34;;;;;;;18.73;11.85;;;;;;;15.91;63.45;99622.63;10363997;28;20080;-61
2021/08/03 06:31:36;;;;;;;19.83;11.77;;;;;;;16.11;62.94;99625.19;10379024;28;20132;-61
2021/08/03 06:36:38;;;;;;;18.63;12.32;;;;;;;16.27;62.44;99613.28;10364527;28;20104;-61
2021/08/03 06:41:41;;;;;;;16.60;11.50;;;;;;;16.28;62.25;99625.50;10363662;28;20050;-61
2021/08/03 06:46:45;;;;;;;18.20;12.20;;;;;;;16.44;61.79;99625.84;10354057;28;20129;-61
2021/08/03 06:51:47;;;;;;;15.88;10.77;;;;;;;16.69;61.72;99631.44;10358327;28;20164;-61
2021/08/03 06:57:06;;;;;;;12.18;9.23;;;;;;;17.26;60.19;99632.44;10364129;28;20136;-61
2021/08/03 07:02:08;;;;;;;12.88;9.10;;;;;;;17.39;59.78;99627.69;10363404;28;20514;-61
2021/08/03 07:07:10;;;;;;;12.93;9.65;;;;;;;17.65;59.29;99623.47;10363239;28;20141;-61
2021/08/03 07:12:13;;;;;;;15.27;9.32;;;;;;;17.59;59.48;99626.69;10348795;28;20050;-59
2021/08/03 07:17:15;;;;;;;11.70;8.23;;;;;;;17.58;59.44;99631.16;10357457;28;20520;-59
2021/08/03 07:22:18;;;;;;;11.43;8.63;;;;;;;17.72;58.79;99628.03;10360389;28;20053;-59
2021/08/03 07:27:20;;;;;;;12.35;8.60;;;;;;;18.07;58.44;99642.41;10339088;28;20506;-59
2021/08/03 07:32:21;;;;;;;12.00;9.30;;;;;;;17.70;58.94;99627.34;10349815;28;20050;-59
2021/08/03 07:37:23;;;;;;;13.77;9.88;;;;;;;17.40;59.38;99630.22;10361206;28;20134;-59
2021/08/03 07:42:25;;;;;;;13.40;9.07;;;;;;;17.53;59.59;99630.72;10360745;28;20457;-59
2021/08/03 07:47:27;;;;;;;12.27;9.20;;;;;;;17.54;58.80;99636.88;10357480;28;20053;-59
2021/08/03 07:52:29;;;;;;;11.18;9.15;;;;;;;17.45;59.21;99625.31;10357059;28;20130;-58
2021/08/03 07:57:30;;;;;;;14.95;10.75;;;;;;;17.10;60.67;99632.97;10357801;28;20132;-59
2021/08/03 08:02:32;;;;;;;14.65;10.80;;;;;;;16.89;60.77;99638.44;10345128;28;20050;-59
2021/08/03 08:07:34;;;;;;;15.77;12.07;;;;;;;16.72;62.20;99632.97;10375140;28;20081;-59
2021/08/03 08:12:36;;;;;;;14.85;12.02;;;;;;;16.49;63.45;99627.13;10349930;28;20091;-58
2021/08/03 08:17:38;;;;;;;23.70;15.13;;;;;;;16.49;64.41;99635.03;10359532;28;20133;-59
2021/08/03 08:22:41;;;;;;;41.67;20.38;;;;;;;16.32;65.85;99634.81;10366598;28;20157;-59
2021/08/03 08:27:43;;;;;;;33.30;17.13;;;;;;;16.24;65.42;99636.31;10362137;28;20137;-58
2021/08/03 08:32:45;;;;;;;40.72;22.58;;;;;;;16.29;65.72;99628.00;10363166;28;20140;-58
2021/08/03 08:38:07;;;;;;;23.85;15.50;;;;;;;16.36;65.04;99617.75;10369766;28;20061;-59
2021/08/03 08:43:15;;;;;;;16.80;12.40;;;;;;;16.48;64.69;99612.25;10382453;28;20053;-58
2021/08/03 08:48:19;;;;;;;23.63;16.15;;;;;;;16.79;65.58;99615.63;10366136;28;20064;-58
2021/08/03 08:53:25;;;;;;;13.10;8.63;;;;;;;16.92;64.07;99595.88;10368532;28;20045;-59
2021/08/03 08:58:30;;;;;;;20.38;15.98;;;;;;;16.88;65.33;99598.94;10366690;28;20477;-59
2021/08/03 09:03:32;;;;;;;19.05;14.90;;;;;;;16.95;64.54;99594.78;10366837;28;20055;-59
2021/08/03 09:08:38;;;;;;;13.00;10.43;;;;;;;16.80;64.18;99585.59;10349737;28;20509;-59
2021/08/03 09:13:55;;;;;;;14.57;10.10;;;;;;;16.96;64.42;99591.97;10367511;28;20134;-59
2021/08/03 09:18:57;;;;;;;8.95;7.70;;;;;;;17.25;62.99;99586.66;10366692;28;20053;-59
2021/08/03 09:24:01;;;;;;;10.70;8.98;;;;;;;17.48;62.95;99581.91;10367646;28;20113;-59
2021/08/03 09:29:06;;;;;;;8.30;6.38;;;;;;;17.57;61.84;99587.16;10357161;28;20054;-59
2021/08/03 09:34:13;;;;;;;7.20;6.13;;;;;;;17.65;61.24;99587.28;10366675;28;20089;-59
2021/08/03 09:39:43;;;;;;;9.48;6.55;;;;;;;17.73;61.66;99590.03;10367321;28;20106;-58
2021/08/03 09:44:52;;;;;;;9.88;7.70;;;;;;;17.66;62.26;99594.25;10362092;28;20050;-59
2021/08/03 09:50:01;;;;;;;9.60;7.55;;;;;;;18.02;62.32;99599.66;10355523;28;20496;-59
2021/08/03 09:55:13;;;;;;;9.55;6.78;;;;;;;18.45;60.70;99597.22;10365979;28;20077;-59
2021/08/03 10:00:35;;;;;;;7.70;6.47;;;;;;;18.40;60.72;99591.53;10366726;28;20050;-59
2021/08/03 10:05:39;;;;;;;9.60;7.22;;;;;;;18.70;60.75;99587.69;10364449;28;20057;-58
2021/08/03 10:10:41;;;;;;;7.35;5.50;;;;;;;18.86;59.43;99587.84;10329723;28;20144;-59
2021/08/03 10:15:45;;;;;;;6.55;5.05;;;;;;;19.04;58.56;99589.53;10326051;28;20061;-59
2021/08/03 10:20:47;;;;;;;9.13;5.05;;;;;;;19.51;58.35;99584.72;10360971;28;20120;-59
2021/08/03 10:25:50;;;;;;;5.97;4.32;;;;;;;19.44;57.43;99573.91;10366008;28;20477;-59
2021/08/03 10:30:54;;;;;;;6.05;4.05;;;;;;;19.69;56.98;99569.56;10334581;28;20137;-59
2021/08/03 10:35:58;;;;;;;4.20;3.28;;;;;;;19.84;57.10;99564.53;10324694;28;20133;-59
2021/08/03 10:41:02;;;;;;;5.70;3.80;;;;;;;19.81;56.77;99564.78;10325177;28;20065;-59
2021/08/03 10:46:07;;;;;;;5.43;3.70;;;;;;;19.51;57.44;99552.03;10325602;28;20133;-59
2021/08/03 10:56:20;;;;;;;6.03;3.20;;;;;;;19.07;57.80;99544.16;10351584;28;20060;-59
2021/08/03 11:01:45;;;;;;;4.68;3.40;;;;;;;18.67;57.77;99541.13;10364700;28;20069;-59
2021/08/03 11:06:47;;;;;;;5.95;3.78;;;;;;;18.47;59.22;99536.97;10332357;28;20423;-59
2021/08/03 11:11:48;;;;;;;5.80;4.70;;;;;;;18.45;61.54;99542.44;10362658;28;20136;-59
2021/08/03 11:16:50;;;;;;;17.77;4.00;;;;;;;17.93;62.28;99531.75;10352732;28;20622;-59
2021/08/03 11:21:52;;;;;;;5.82;2.97;;;;;;;17.48;63.75;99545.75;10363645;28;20080;-59
2021/08/03 11:26:56;;;;;;;4.07;2.50;;;;;;;17.74;61.30;99549.38;10343353;28;20081;-58
2021/08/03 11:32:00;;;;;;;5.38;2.60;;;;;;;18.11;62.39;99541.41;10349705;28;20055;-59
2021/08/03 11:37:08;;;;;;;4.13;2.30;;;;;;;18.46;61.33;99535.34;10363055;28;20581;-59
2021/08/03 11:42:11;;;;;;;3.78;2.10;;;;;;;18.60;60.73;99533.00;10361830;28;20054;-59
2021/08/03 11:47:14;;;;;;;3.92;2.00;;;;;;;18.91;60.40;99528.09;10364134;28;20045;-57
2021/08/03 11:52:19;;;;;;;8.57;2.50;;;;;;;19.26;60.38;99516.59;10359760;28;20146;-59
2021/08/03 11:57:25;;;;;;;4.03;1.70;;;;;;;19.70;58.44;99504.06;10349823;28;20133;-59
2021/08/03 12:02:27;;;;;;;2.28;1.60;;;;;;;20.50;57.54;99500.81;10361788;28;20410;-59
2021/08/03 12:07:29;;;;;;;2.67;1.50;;;;;;;20.68;54.57;99497.00;10330264;28;20054;-59
2021/08/03 12:12:34;;;;;;;2.70;1.20;;;;;;;20.69;52.68;99498.69;10347680;28;20132;-59
2021/08/03 12:17:40;;;;;;;2.58;1.30;;;;;;;20.50;52.29;99492.84;10317850;28;20053;-59
2021/08/03 12:22:45;;;;;;;3.00;2.20;;;;;;;20.46;53.90;99487.00;10321795;28;20116;-59
2021/08/03 12:27:48;;;;;;;2.58;1.58;;;;;;;20.57;54.86;99478.72;10349764;28;20494;-59
2021/08/03 12:32:50;;;;;;;2.15;1.45;;;;;;;20.74;51.51;99476.94;10362553;28;20125;-59
2021/08/03 12:37:51;;;;;;;2.13;1.52;;;;;;;20.93;51.85;99471.25;10361053;28;20130;-59
2021/08/03 12:42:54;;;;;;;3.13;1.70;;;;;;;21.40;53.19;99466.84;10370050;28;20148;-59
2021/08/03 12:48:04;;;;;;;4.13;1.60;;;;;;;21.90;52.65;99480.59;10339974;28;20513;-59
2021/08/03 12:53:05;;;;;;;2.42;1.38;;;;;;;22.13;49.41;99471.84;10328859;28;20133;-58
2021/08/03 12:58:07;;;;;;;4.78;1.70;;;;;;;22.01;50.24;99465.22;10332895;28;20153;-59
2021/08/03 13:03:17;;;;;;;3.75;2.00;;;;;;;21.78;50.90;99466.00;10327133;28;20093;-59
2021/08/03 13:08:18;;;;;;;5.97;1.90;;;;;;;21.85;50.35;99451.00;10359351;28;20123;-59
2021/08/03 13:13:20;;;;;;;4.47;1.77;;;;;;;22.01;49.00;99460.72;10369081;28;20132;-58
2021/08/03 13:18:22;;;;;;;2.33;1.60;;;;;;;21.80;48.49;99452.53;10366393;28;20422;-59
2021/08/03 13:23:24;;;;;;;2.15;1.60;;;;;;;21.51;48.54;99444.38;10343812;28;20470;-59
2021/08/03 13:28:26;;;;;;;1.90;1.40;;;;;;;21.31;48.51;99448.41;10357641;28;20149;-59
2021/08/03 13:33:27;;;;;;;2.53;1.40;;;;;;;21.08;49.32;99435.84;10366147;28;20102;-59
2021/08/03 13:38:29;;;;;;;2.92;1.50;;;;;;;21.12;50.24;99431.00;10327241;28;20077;-59
2021/08/03 13:43:32;;;;;;;3.28;1.30;;;;;;;21.36;49.93;99422.13;10346744;28;20050;-59
2021/08/03 13:48:33;;;;;;;3.55;1.27;;;;;;;21.71;49.13;99416.31;10366014;28;20129;-59
2021/08/03 13:53:35;;;;;;;1.77;1.20;;;;;;;21.98;47.76;99413.16;10365234;28;20053;-59
2021/08/03 13:58:37;;;;;;;2.20;1.35;;;;;;;22.16;47.38;99415.56;10382200;28;20137;-59
2021/08/03 14:03:39;;;;;;;1.92;1.17;;;;;;;21.98;47.59;99415.00;10365352;28;20061;-59
2021/08/03 14:08:41;;;;;;;2.20;1.33;;;;;;;21.98;48.70;99415.81;10366672;28;20080;-60
2021/08/03 14:13:43;;;;;;;2.50;1.30;;;;;;;21.64;46.63;99410.06;10344615;28;20053;-59
2021/08/03 14:18:45;;;;;;;2.47;1.20;;;;;;;21.23;48.32;99408.53;10325502;28;20052;-59
2021/08/03 14:23:46;;;;;;;1.75;1.20;;;;;;;20.90;48.43;99413.97;10346521;28;20080;-59
2021/08/03 14:28:48;;;;;;;1.88;1.30;;;;;;;21.03;48.40;99408.91;10365835;28;20149;-59
2021/08/03 14:33:50;;;;;;;1.58;1.25;;;;;;;21.33;47.93;99406.53;10343885;28;20096;-59
2021/08/03 14:38:52;;;;;;;1.85;1.20;;;;;;;21.68;48.35;99398.84;10325432;28;20406;-59
2021/08/03 14:43:55;;;;;;;1.70;1.00;;;;;;;21.75;47.95;99399.00;10346946;28;20049;-59
2021/08/03 14:48:56;;;;;;;2.17;1.40;;;;;;;21.71;48.52;99400.34;10364908;28;20064;-59
2021/08/03 14:53:58;;;;;;;3.28;1.50;;;;;;;21.36;48.55;99391.03;10362809;28;20458;-59
2021/08/03 14:59:00;;;;;;;1.77;1.40;;;;;;;21.26;49.69;99401.03;10325674;28;20046;-59
2021/08/03 15:04:01;;;;;;;3.38;1.52;;;;;;;21.20;50.62;99399.06;10345677;28;20054;-59
2021/08/03 15:09:04;;;;;;;1.98;1.45;;;;;;;20.69;51.90;99411.00;10364597;28;20463;-59
2021/08/03 15:14:05;;;;;;;17.75;2.83;;;;;;;19.96;56.40;99430.53;10362070;28;20136;-59
2021/08/03 15:19:07;;;;;;;7.97;2.85;;;;;;;18.77;58.79;99427.97;10364211;28;20045;-59
2021/08/03 15:24:10;;;;;;;11.13;2.50;;;;;;;17.90;60.14;99424.41;10327667;28;20491;-59
2021/08/03 15:29:12;;;;;;;9.27;3.10;;;;;;;17.80;62.21;99434.22;10322958;28;20165;-60
2021/08/03 15:34:15;;;;;;;5.45;2.33;;;;;;;17.82;61.38;99426.97;10324020;28;20136;-59
2021/08/03 15:39:16;;;;;;;3.78;2.10;;;;;;;17.78;62.42;99437.03;10323242;28;20483;-59
2021/08/03 15:44:18;;;;;;;5.43;2.47;;;;;;;18.09;63.33;99441.94;10357932;28;20200;-58
2021/08/03 15:49:20;;;;;;;4.90;2.63;;;;;;;18.40;62.85;99440.63;10363751;28;20054;-59
2021/08/03 15:54:21;;;;;;;4.80;2.28;;;;;;;18.57;61.66;99437.94;10360888;28;20451;-58
2021/08/03 15:59:23;;;;;;;4.55;2.10;;;;;;;18.80;61.28;99429.47;10362799;28;20145;-59
2021/08/03 16:04:25;;;;;;;4.70;2.70;;;;;;;19.18;61.02;99421.94;10361411;28;20049;-59
2021/08/03 16:09:27;;;;;;;4.00;2.10;;;;;;;19.18;59.74;99414.00;10362611;28;20046;-59
2021/08/03 16:14:28;;;;;;;5.95;2.25;;;;;;;19.24;60.61;99408.06;10381940;28;20045;-60
2021/08/03 16:19:30;;;;;;;3.90;2.40;;;;;;;19.21;61.40;99407.56;10369803;28;20082;-59
2021/08/03 16:24:33;;;;;;;5.70;2.50;;;;;;;19.19;61.61;99413.03;10337533;28;20127;-60
2021/08/03 16:29:34;;;;;;;3.40;2.42;;;;;;;19.48;62.14;99417.13;10366001;28;20089;-59
2021/08/03 16:34:48;;;;;;;4.75;2.63;;;;;;;19.54;62.62;99416.47;10387327;28;20082;-60
2021/08/03 16:39:53;;;;;;;6.03;2.13;;;;;;;19.52;61.23;99429.06;10408694;28;20056;-60
2021/08/03 16:44:55;;;;;;;3.97;2.22;;;;;;;19.54;61.99;99424.44;10372047;28;20045;-60
2021/08/03 16:49:57;;;;;;;4.25;2.20;;;;;;;19.65;61.75;99421.47;10368222;28;20404;-60
2021/08/03 16:55:00;;;;;;;3.85;2.08;;;;;;;19.98;62.01;99412.63;10356247;28;20200;-59
2021/08/03 17:00:04;;;;;;;6.00;2.00;;;;;;;20.16;60.66;99408.00;10390226;28;20129;-59
2021/08/03 17:05:07;;;;;;;3.85;1.63;;;;;;;20.20;58.69;99401.34;10392699;28;20064;-59
2021/08/03 17:10:14;;;;;;;2.60;1.50;;;;;;;20.03;58.78;99407.66;10407005;28;20095;-60
2021/08/03 17:15:16;;;;;;;4.40;1.77;;;;;;;20.00;58.90;99400.84;10362819;28;20046;-60
2021/08/03 17:20:19;;;;;;;4.80;1.80;;;;;;;20.00;58.76;99407.97;10341905;28;20125;-59
2021/08/03 17:25:24;;;;;;;3.63;1.83;;;;;;;19.97;60.27;99408.31;10368168;28;20554;-59
2021/08/03 17:30:26;;;;;;;2.60;1.70;;;;;;;19.71;60.10;99415.50;10370203;28;20109;-60
2021/08/03 17:35:28;;;;;;;3.85;2.17;;;;;;;19.26;61.08;99413.19;10341589;28;20085;-60
2021/08/03 17:40:32;;;;;;;5.32;2.80;;;;;;;18.63;62.67;99423.22;10386083;28;20085;-60
2021/08/03 17:45:34;;;;;;;3.40;2.22;;;;;;;18.41;63.09;99419.28;10358228;28;20137;-59
2021/08/03 17:50:36;;;;;;;4.75;2.67;;;;;;;18.13;63.81;99424.78;10396336;28;20430;-60
2021/08/03 17:55:40;;;;;;;5.90;3.35;;;;;;;17.95;64.76;99429.25;10354205;28;20065;-60
2021/08/03 18:00:43;;;;;;;5.55;3.25;;;;;;;17.93;65.81;99432.06;10343180;28;20065;-59
2021/08/03 18:05:46;;;;;;;5.13;2.95;;;;;;;18.08;65.58;99427.88;10376015;28;20053;-60
2021/08/03 18:10:54;;;;;;;9.02;4.40;;;;;;;18.05;66.26;99438.78;10406265;28;20145;-60
2021/08/03 18:15:57;;;;;;;9.95;6.15;;;;;;;17.84;66.38;99441.72;10385419;28;20125;-60
2021/08/03 18:21:03;;;;;;;8.15;4.35;;;;;;;17.66;67.56;99443.50;10363516;28;20817;-60
2021/08/03 18:26:11;;;;;;;9.32;4.50;;;;;;;17.66;67.20;99440.84;10366659;28;20058;-60
2021/08/03 18:31:31;;;;;;;6.57;4.85;;;;;;;17.61;67.27;99445.75;10405553;28;20064;-61
2021/08/03 18:36:34;;;;;;;13.15;7.00;;;;;;;17.65;67.26;99448.91;10369317;28;20050;-60
2021/08/03 18:41:44;;;;;;;7.45;4.28;;;;;;;17.63;67.67;99456.16;10355820;28;20133;-60
2021/08/03 18:46:46;;;;;;;76.43;11.98;;;;;;;17.57;67.50;99457.59;10350081;28;20085;-60
2021/08/03 18:51:50;;;;;;;848.55;28.95;;;;;;;17.18;67.94;99463.19;10358447;28;20046;-60
2021/08/03 18:56:52;;;;;;;35.33;8.48;;;;;;;17.15;68.29;99464.28;10345180;28;20124;-60
2021/08/03 19:01:56;;;;;;;21.05;6.22;;;;;;;17.11;68.49;99467.38;10362101;28;20486;-60
2021/08/03 19:12:27;;;;;;;120.68;10.63;;;;;;;16.98;68.52;99478.25;10392995;28;20395;-60
2021/08/03 19:17:58;;;;;;;9.00;5.65;;;;;;;16.90;69.07;99480.75;10362703;28;20058;-60
2021/08/03 19:23:04;;;;;;;660.60;26.90;;;;;;;16.97;68.74;99479.22;10351568;28;20669;-60
2021/08/03 19:28:06;;;;;;;14.35;6.80;;;;;;;16.99;68.42;99487.84;10325260;28;20082;-61
2021/08/03 19:33:08;;;;;;;17.27;5.07;;;;;;;17.00;68.43;99489.50;10335856;28;20054;-60
2021/08/03 19:38:09;;;;;;;10.32;6.03;;;;;;;17.04;68.33;99499.63;10343243;28;20053;-60
2021/08/03 19:43:14;;;;;;;33.17;5.18;;;;;;;17.12;68.03;99500.75;10362502;28;20092;-61
2021/08/03 19:48:20;;;;;;;16.85;7.93;;;;;;;17.14;68.00;99504.88;10364338;28;20046;-61
2021/08/03 19:53:22;;;;;;;121.00;10.93;;;;;;;17.01;68.07;99512.31;10372589;28;20050;-61
2021/08/03 19:58:27;;;;;;;7.10;4.32;;;;;;;16.97;68.20;99513.56;10341911;28;20047;-61
2021/08/03 20:03:30;;;;;;;11.20;8.10;;;;;;;17.01;68.15;99514.94;10361908;28;20149;-61
2021/08/03 20:08:32;;;;;;;9.75;4.40;;;;;;;17.13;68.11;99524.38;10369807;28;20049;-61
2021/08/03 20:13:34;;;;;;;7.22;5.38;;;;;;;17.18;68.31;99523.97;10368843;28;20121;-61
2021/08/03 20:18:39;;;;;;;8.68;6.05;;;;;;;17.17;68.35;99520.47;10369037;28;20516;-61
2021/08/03 20:23:41;;;;;;;13.32;5.45;;;;;;;17.14;68.09;99525.22;10386579;28;20108;-61
2021/08/03 20:28:48;;;;;;;9.38;4.10;;;;;;;17.01;68.43;99531.66;10380253;28;20084;-60
2021/08/03 20:33:53;;;;;;;13.57;5.63;;;;;;;16.96;68.10;99528.59;10384574;28;20054;-61
2021/08/03 20:39:01;;;;;;;8.32;4.72;;;;;;;16.66;68.92;99527.91;10366504;28;20046;-61
2021/08/03 20:44:03;;;;;;;7.22;3.75;;;;;;;16.67;68.81;99529.59;10348886;28;20133;-61
2021/08/03 20:49:05;;;;;;;8.32;4.00;;;;;;;16.72;68.78;99537.91;10326880;28;20046;-61
2021/08/03 20:54:06;;;;;;;8.73;4.97;;;;;;;16.70;68.75;99524.88;10378032;28;20136;-61
2021/08/03 20:59:08;;;;;;;6.20;3.85;;;;;;;16.61;68.61;99533.59;10367184;28;20081;-61
2021/08/03 21:04:14;;;;;;;8.65;5.05;;;;;;;16.72;68.87;99545.84;10382482;28;20053;-61
2021/08/03 21:09:17;;;;;;;8.45;3.90;;;;;;;16.78;68.95;99540.00;10369157;28;20548;-61
2021/08/03 21:14:19;;;;;;;6.18;3.50;;;;;;;16.83;68.71;99543.06;10361849;28;20117;-61
2021/08/03 21:19:21;;;;;;;8.60;3.88;;;;;;;16.70;68.70;99546.00;10333635;28;20414;-61
2021/08/03 21:24:23;;;;;;;7.90;3.38;;;;;;;16.60;68.95;99545.16;10337333;28;20142;-62
2021/08/03 21:29:25;;;;;;;5.57;2.80;;;;;;;16.62;68.86;99550.28;10340966;28;20145;-62
2021/08/03 21:34:27;;;;;;;6.20;2.60;;;;;;;16.60;68.51;99546.97;10350524;28;20046;-61
2021/08/03 21:39:29;;;;;;;5.38;2.80;;;;;;;16.45;68.84;99564.16;10355675;28;20512;-62
2021/08/03 21:44:31;;;;;;;7.70;3.70;;;;;;;16.39;69.17;99559.41;10348319;28;20133;-62
2021/08/03 21:49:33;;;;;;;11.23;3.15;;;;;;;16.29;69.36;99563.84;10336348;28;20134;-62
2021/08/03 21:54:34;;;;;;;7.63;2.88;;;;;;;16.32;69.48;99569.69;10336916;28;20046;-61
2021/08/03 21:59:36;;;;;;;6.00;2.80;;;;;;;16.34;69.23;99559.84;10364002;28;20461;-62
2021/08/03 22:04:38;;;;;;;7.55;2.90;;;;;;;16.40;69.17;99556.66;10342998;28;20414;-62
2021/08/03 22:09:39;;;;;;;12.35;2.70;;;;;;;16.45;68.83;99562.38;10370651;28;20464;-62
2021/08/03 22:14:41;;;;;;;8.30;3.17;;;;;;;16.45;68.67;99559.72;10360543;28;20417;-62
2021/08/03 22:19:43;;;;;;;8.50;2.65;;;;;;;16.36;68.45;99560.53;10352101;28;20641;-62
2021/08/03 22:24:45;;;;;;;8.50;3.10;;;;;;;16.28;68.65;99570.09;10357649;28;20179;-61
2021/08/03 22:29:47;;;;;;;6.45;2.28;;;;;;;16.22;68.38;99569.66;10329355;28;20054;-61
2021/08/03 22:34:48;;;;;;;8.23;2.58;;;;;;;16.18;68.84;99560.34;10363792;28;20502;-62
2021/08/03 22:39:50;;;;;;;9.80;2.88;;;;;;;16.26;68.51;99569.41;10348381;28;20077;-61
2021/08/03 22:44:52;;;;;;;5.10;2.70;;;;;;;16.17;68.69;99569.25;10363372;28;20168;-62
2021/08/03 22:49:53;;;;;;;10.50;3.35;;;;;;;16.03;68.70;99569.63;10348584;28;20051;-62
2021/08/03 22:54:55;;;;;;;11.77;3.40;;;;;;;16.05;68.91;99565.06;10334607;28;20519;-62
2021/08/03 22:59:57;;;;;;;9.70;3.58;;;;;;;16.10;68.61;99575.22;10349007;28;20145;-61
2021/08/03 23:04:59;;;;;;;7.00;2.92;;;;;;;16.09;68.89;99562.97;10324862;28;20059;-61
2021/08/03 23:10:00;;;;;;;5.32;3.00;;;;;;;16.10;69.09;99565.47;10340825;28;20049;-61
2021/08/03 23:15:03;;;;;;;9.10;2.85;;;;;;;16.09;69.30;99574.38;10330199;28;20054;-62
2021/08/03 23:20:06;;;;;;;8.70;3.35;;;;;;;16.10;69.22;99564.66;10337493;28;20137;-62
2021/08/03 23:25:09;;;;;;;10.40;5.72;;;;;;;16.03;69.54;99574.91;10324350;28;20145;-61
2021/08/03 23:30:10;;;;;;;9.77;4.90;;;;;;;16.11;69.15;99568.94;10343679;28;20142;-61